Invesco Field (Denver), Colorado
Current Conditions -  °F | °C
As of 6:47 AM on Monday 26 Jan 2015 (Local Time) from KBJC Reporting Station
Scattered Clouds Scattered Clouds  
Wind Chill: 39°   Ceiling: Unl
Heat Index: 39°   Visibility: 30mi
Dew Point: 23°   Wind: 3mph
Humidity: 52%   Direction: 200°SSW
Pressure: 30.25"   Gusts: NA
Location:  39.74401°N, 105.0253°W
Report Text: KBJC 261347Z 20003KT 30SM SCT150 04/M05 A3025
Loading
Personal Weather Stations






























Interactive Weather Map New forecast layout! Learn more

10-Day Weather Forecast

Advertisements
Track Severe Weather on mobile